Airfield :
LOGIN :

Register | Disclaimer

   EN    FR    IT 

 










Legend :    VFR   Marginal VFR   IFR   Intensive IFR   Very Intensive IFR
Visi :
Ceiling :
>= 8 km
>= 3000ft
5 to 8 km
1000 to 3000 ft
1500m to 5 km
500 to 1000 ft
800 to 1500m
200 to 500 ft
< 800m
< 200 ft
Symbols :   Thunderstorms  Fog  Heavy snow  Heavy precipitations  Wind > 20 kt
SIGMETs :     Misc.  Thunderstorms  Icing  Turbulence  Mountain Waves  Volcanic Ashes






- Airport Elevation : 125 ft
- IATA code : MGL


EDLN - Mönchengladbach

CURRENT METAR :
  • 161720Z 16007KT 9999 -SN OVC038 01/M04 Q1019

EXPIRED METARs :
  • 161650Z 16008KT 130V190 CAVOK 01/M04 Q1019
  • 161620Z 17007KT 130V200 CAVOK 01/M04 Q1020
  • 161550Z 18007KT 140V210 CAVOK 01/M04 Q1021
  • 161520Z 18005KT 140V210 CAVOK 01/M04 Q1021
  • 161450Z 20007KT 9999 FEW040 02/M04 Q1022

TAF TAF EDLN
Valid from the 16 at 15:00 until the 17 at 00:00 UTC


161400Z 1615/1624 21006KT 9999 SCT040
BECMG 1617/1620 15009KT 3000 -SN OVC010
TEMPO 1620/1624 1500 SN BKN007



MET'MAP, your aeronautical weather chart ! - Copyright ORBIFLY December 2007 - Disclaimer

ORBIFLY MET'MAP TEAM :

Programming & Development : Alexandra Zaïnal
Concept & original design : Baudouin d'Aumeries
Assistance for programming : Marc-Olivier Méhu
Technical & hardware support : Manuel Goepfert

Contact : metmap@orbifly.com




SOURCES & CREDITS :

   NOAA